sensor_id;sensor_type;location;lat;lon;timestamp;temperature;humidity
10175;DHT22;18221;38.704;0.152;2024-03-08T00:00:02;13.10;99.90
10175;DHT22;18221;38.704;0.152;2024-03-08T00:02:36;13.20;99.90
10175;DHT22;18221;38.704;0.152;2024-03-08T00:05:04;13.20;99.90
10175;DHT22;18221;38.704;0.152;2024-03-08T00:07:34;13.10;99.90
10175;DHT22;18221;38.704;0.152;2024-03-08T00:10:02;13.10;99.90
10175;DHT22;18221;38.704;0.152;2024-03-08T00:12:30;13.10;99.90
10175;DHT22;18221;38.704;0.152;2024-03-08T00:14:58;13.10;99.90
10175;DHT22;18221;38.704;0.152;2024-03-08T00:17:27;13.10;99.90
10175;DHT22;18221;38.704;0.152;2024-03-08T00:19:55;13.10;99.90
10175;DHT22;18221;38.704;0.152;2024-03-08T00:22:23;13.10;99.90
10175;DHT22;18221;38.704;0.152;2024-03-08T00:24:51;13.10;99.90
10175;DHT22;18221;38.704;0.152;2024-03-08T00:27:19;13.10;99.90
10175;DHT22;18221;38.704;0.152;2024-03-08T00:29:47;13.10;99.90
10175;DHT22;18221;38.704;0.152;2024-03-08T00:32:15;13.10;99.90
10175;DHT22;18221;38.704;0.152;2024-03-08T00:34:45;13.10;99.90
10175;DHT22;18221;38.704;0.152;2024-03-08T00:37:12;13.00;99.90
10175;DHT22;18221;38.704;0.152;2024-03-08T00:39:40;13.10;99.90
10175;DHT22;18221;38.704;0.152;2024-03-08T00:42:08;13.00;99.90
10175;DHT22;18221;38.704;0.152;2024-03-08T00:44:36;13.00;99.90
10175;DHT22;18221;38.704;0.152;2024-03-08T00:47:06;13.10;99.90
10175;DHT22;18221;38.704;0.152;2024-03-08T00:49:34;13.00;99.90
10175;DHT22;18221;38.704;0.152;2024-03-08T01:02:25;13.10;99.90
10175;DHT22;18221;38.704;0.152;2024-03-08T01:04:55;13.20;99.90
10175;DHT22;18221;38.704;0.152;2024-03-08T01:07:22;13.10;99.90
10175;DHT22;18221;38.704;0.152;2024-03-08T01:09:50;13.10;99.90
10175;DHT22;18221;38.704;0.152;2024-03-08T01:12:18;13.10;99.90
10175;DHT22;18221;38.704;0.152;2024-03-08T01:14:46;13.10;99.90
10175;DHT22;18221;38.704;0.152;2024-03-08T01:17:14;13.10;99.90
10175;DHT22;18221;38.704;0.152;2024-03-08T01:19:43;13.10;99.90
10175;DHT22;18221;38.704;0.152;2024-03-08T01:22:11;13.10;99.90
10175;DHT22;18221;38.704;0.152;2024-03-08T01:24:39;13.10;99.90
10175;DHT22;18221;38.704;0.152;2024-03-08T01:27:07;13.10;99.90
10175;DHT22;18221;38.704;0.152;2024-03-08T01:29:36;13.00;99.90
10175;DHT22;18221;38.704;0.152;2024-03-08T01:32:04;13.00;99.90
10175;DHT22;18221;38.704;0.152;2024-03-08T01:34:33;13.00;99.90
10175;DHT22;18221;38.704;0.152;2024-03-08T01:37:02;12.90;99.90
10175;DHT22;18221;38.704;0.152;2024-03-08T01:39:30;12.80;99.90
10175;DHT22;18221;38.704;0.152;2024-03-08T01:41:59;12.80;99.90
10175;DHT22;18221;38.704;0.152;2024-03-08T01:44:27;12.80;99.90
10175;DHT22;18221;38.704;0.152;2024-03-08T01:46:56;12.80;99.90
10175;DHT22;18221;38.704;0.152;2024-03-08T01:49:25;12.70;99.90
10175;DHT22;18221;38.704;0.152;2024-03-08T01:51:55;12.70;99.90
10175;DHT22;18221;38.704;0.152;2024-03-08T01:54:25;12.70;99.90
10175;DHT22;18221;38.704;0.152;2024-03-08T01:56:54;12.80;99.90
10175;DHT22;18221;38.704;0.152;2024-03-08T01:59:22;12.80;99.90
10175;DHT22;18221;38.704;0.152;2024-03-08T02:01:55;12.80;99.90
10175;DHT22;18221;38.704;0.152;2024-03-08T02:04:28;12.80;99.90
10175;DHT22;18221;38.704;0.152;2024-03-08T02:06:57;12.80;99.90
10175;DHT22;18221;38.704;0.152;2024-03-08T02:09:27;12.70;99.90
10175;DHT22;18221;38.704;0.152;2024-03-08T02:11:56;12.70;99.90
10175;DHT22;18221;38.704;0.152;2024-03-08T02:14:25;12.70;99.90
10175;DHT22;18221;38.704;0.152;2024-03-08T02:16:55;12.70;99.90
10175;DHT22;18221;38.704;0.152;2024-03-08T02:19:27;12.70;99.90
10175;DHT22;18221;38.704;0.152;2024-03-08T02:21:57;12.70;99.90
10175;DHT22;18221;38.704;0.152;2024-03-08T02:24:25;12.70;99.90
10175;DHT22;18221;38.704;0.152;2024-03-08T02:26:53;12.70;99.90
10175;DHT22;18221;38.704;0.152;2024-03-08T02:29:22;12.70;99.90
10175;DHT22;18221;38.704;0.152;2024-03-08T02:31:51;12.60;99.90
10175;DHT22;18221;38.704;0.152;2024-03-08T02:34:21;12.60;99.90
10175;DHT22;18221;38.704;0.152;2024-03-08T02:36:49;12.60;99.90
10175;DHT22;18221;38.704;0.152;2024-03-08T02:39:19;12.60;99.90
10175;DHT22;18221;38.704;0.152;2024-03-08T02:41:47;12.60;99.90
10175;DHT22;18221;38.704;0.152;2024-03-08T02:44:15;12.60;99.90
10175;DHT22;18221;38.704;0.152;2024-03-08T02:46:43;12.60;99.90
10175;DHT22;18221;38.704;0.152;2024-03-08T02:49:11;12.60;99.90
10175;DHT22;18221;38.704;0.152;2024-03-08T02:51:39;12.60;99.90
10175;DHT22;18221;38.704;0.152;2024-03-08T02:54:06;12.50;99.90
10175;DHT22;18221;38.704;0.152;2024-03-08T02:56:37;12.50;99.90
10175;DHT22;18221;38.704;0.152;2024-03-08T02:59:05;12.50;99.90
10175;DHT22;18221;38.704;0.152;2024-03-08T03:01:34;12.60;99.90
10175;DHT22;18221;38.704;0.152;2024-03-08T03:04:01;12.60;99.90
10175;DHT22;18221;38.704;0.152;2024-03-08T03:06:29;12.60;99.90
10175;DHT22;18221;38.704;0.152;2024-03-08T03:08:57;12.60;99.90
10175;DHT22;18221;38.704;0.152;2024-03-08T03:11:25;12.50;99.90
10175;DHT22;18221;38.704;0.152;2024-03-08T03:13:54;12.50;99.90
10175;DHT22;18221;38.704;0.152;2024-03-08T03:16:22;12.50;99.90
10175;DHT22;18221;38.704;0.152;2024-03-08T03:18:50;12.50;99.90
10175;DHT22;18221;38.704;0.152;2024-03-08T03:21:18;12.50;99.90
10175;DHT22;18221;38.704;0.152;2024-03-08T03:23:46;12.50;99.90
10175;DHT22;18221;38.704;0.152;2024-03-08T03:26:14;12.40;99.90
10175;DHT22;18221;38.704;0.152;2024-03-08T03:28:43;12.40;99.90
10175;DHT22;18221;38.704;0.152;2024-03-08T03:31:12;12.40;99.90
10175;DHT22;18221;38.704;0.152;2024-03-08T03:33:40;12.40;99.90
10175;DHT22;18221;38.704;0.152;2024-03-08T03:36:08;12.40;99.90
10175;DHT22;18221;38.704;0.152;2024-03-08T03:38:37;12.40;99.90
10175;DHT22;18221;38.704;0.152;2024-03-08T03:41:05;10.00;99.90
10175;DHT22;18221;38.704;0.152;2024-03-08T03:43:36;12.30;99.90
10175;DHT22;18221;38.704;0.152;2024-03-08T03:46:06;12.30;99.90
10175;DHT22;18221;38.704;0.152;2024-03-08T03:48:37;12.40;99.90
10175;DHT22;18221;38.704;0.152;2024-03-08T03:51:05;12.30;99.90
10175;DHT22;18221;38.704;0.152;2024-03-08T03:53:33;12.30;99.90
10175;DHT22;18221;38.704;0.152;2024-03-08T03:56:01;12.30;99.90
10175;DHT22;18221;38.704;0.152;2024-03-08T03:58:32;12.30;99.90
10175;DHT22;18221;38.704;0.152;2024-03-08T04:01:00;12.30;99.90
10175;DHT22;18221;38.704;0.152;2024-03-08T04:03:29;12.30;99.90
10175;DHT22;18221;38.704;0.152;2024-03-08T04:05:58;12.20;99.90
10175;DHT22;18221;38.704;0.152;2024-03-08T04:08:26;12.20;99.90
10175;DHT22;18221;38.704;0.152;2024-03-08T04:10:55;12.20;99.90
10175;DHT22;18221;38.704;0.152;2024-03-08T04:13:24;12.20;99.90
10175;DHT22;18221;38.704;0.152;2024-03-08T04:15:52;12.20;99.90
10175;DHT22;18221;38.704;0.152;2024-03-08T04:18:20;12.20;99.90
10175;DHT22;18221;38.704;0.152;2024-03-08T04:20:48;12.20;99.90
10175;DHT22;18221;38.704;0.152;2024-03-08T04:23:17;12.20;99.90
10175;DHT22;18221;38.704;0.152;2024-03-08T04:25:45;12.20;99.90
10175;DHT22;18221;38.704;0.152;2024-03-08T04:28:13;12.10;99.90
10175;DHT22;18221;38.704;0.152;2024-03-08T04:30:43;12.10;99.90
10175;DHT22;18221;38.704;0.152;2024-03-08T04:33:12;12.00;99.90
10175;DHT22;18221;38.704;0.152;2024-03-08T04:35:44;12.00;99.90
10175;DHT22;18221;38.704;0.152;2024-03-08T04:38:13;11.90;99.90
10175;DHT22;18221;38.704;0.152;2024-03-08T04:40:43;11.90;99.90
10175;DHT22;18221;38.704;0.152;2024-03-08T04:43:11;11.90;99.90
10175;DHT22;18221;38.704;0.152;2024-03-08T04:45:40;11.90;99.90
10175;DHT22;18221;38.704;0.152;2024-03-08T04:48:09;11.80;99.90
10175;DHT22;18221;38.704;0.152;2024-03-08T04:50:37;11.80;99.90
10175;DHT22;18221;38.704;0.152;2024-03-08T04:53:05;11.70;99.90
10175;DHT22;18221;38.704;0.152;2024-03-08T04:55:34;11.80;99.90
10175;DHT22;18221;38.704;0.152;2024-03-08T04:58:04;11.70;99.90
10175;DHT22;18221;38.704;0.152;2024-03-08T05:00:32;11.70;99.90
10175;DHT22;18221;38.704;0.152;2024-03-08T05:03:01;11.70;99.90
10175;DHT22;18221;38.704;0.152;2024-03-08T05:05:30;11.70;99.90
10175;DHT22;18221;38.704;0.152;2024-03-08T05:07:59;11.70;99.90
10175;DHT22;18221;38.704;0.152;2024-03-08T05:10:27;11.80;99.90
10175;DHT22;18221;38.704;0.152;2024-03-08T05:12:55;11.70;99.90
10175;DHT22;18221;38.704;0.152;2024-03-08T05:15:24;11.80;99.90
10175;DHT22;18221;38.704;0.152;2024-03-08T05:17:52;11.70;99.90
10175;DHT22;18221;38.704;0.152;2024-03-08T05:20:21;11.70;99.90
10175;DHT22;18221;38.704;0.152;2024-03-08T05:22:49;11.60;99.90
10175;DHT22;18221;38.704;0.152;2024-03-08T05:25:17;11.60;99.90
10175;DHT22;18221;38.704;0.152;2024-03-08T05:27:45;11.50;99.90
10175;DHT22;18221;38.704;0.152;2024-03-08T05:30:14;11.70;99.90
10175;DHT22;18221;38.704;0.152;2024-03-08T05:32:44;11.70;99.90
10175;DHT22;18221;38.704;0.152;2024-03-08T05:35:12;11.70;99.90
10175;DHT22;18221;38.704;0.152;2024-03-08T05:37:42;11.70;99.90
10175;DHT22;18221;38.704;0.152;2024-03-08T05:40:10;11.70;99.90
10175;DHT22;18221;38.704;0.152;2024-03-08T05:42:39;11.70;99.90
10175;DHT22;18221;38.704;0.152;2024-03-08T05:45:07;11.70;99.90
10175;DHT22;18221;38.704;0.152;2024-03-08T05:47:36;11.70;99.90
10175;DHT22;18221;38.704;0.152;2024-03-08T05:50:08;11.70;99.90
10175;DHT22;18221;38.704;0.152;2024-03-08T05:52:37;11.70;99.90
10175;DHT22;18221;38.704;0.152;2024-03-08T05:55:05;11.70;99.90
10175;DHT22;18221;38.704;0.152;2024-03-08T05:57:35;11.70;99.90
10175;DHT22;18221;38.704;0.152;2024-03-08T06:00:06;11.60;99.90
10175;DHT22;18221;38.704;0.152;2024-03-08T06:02:37;11.60;99.90
10175;DHT22;18221;38.704;0.152;2024-03-08T06:05:09;11.60;99.90
10175;DHT22;18221;38.704;0.152;2024-03-08T06:07:38;11.60;99.90
10175;DHT22;18221;38.704;0.152;2024-03-08T06:10:08;11.60;99.90
10175;DHT22;18221;38.704;0.152;2024-03-08T06:12:38;11.60;99.90
10175;DHT22;18221;38.704;0.152;2024-03-08T06:15:08;11.60;99.90
10175;DHT22;18221;38.704;0.152;2024-03-08T06:17:40;11.60;99.90
10175;DHT22;18221;38.704;0.152;2024-03-08T06:20:10;11.60;99.90
10175;DHT22;18221;38.704;0.152;2024-03-08T06:22:39;11.60;99.90
10175;DHT22;18221;38.704;0.152;2024-03-08T06:25:08;11.60;99.90
10175;DHT22;18221;38.704;0.152;2024-03-08T06:27:39;11.60;99.90
10175;DHT22;18221;38.704;0.152;2024-03-08T06:30:09;11.50;99.90
10175;DHT22;18221;38.704;0.152;2024-03-08T06:32:37;11.50;99.90
10175;DHT22;18221;38.704;0.152;2024-03-08T06:35:06;11.50;99.90
10175;DHT22;18221;38.704;0.152;2024-03-08T06:37:37;11.50;99.90
10175;DHT22;18221;38.704;0.152;2024-03-08T06:40:06;11.40;99.90
10175;DHT22;18221;38.704;0.152;2024-03-08T06:42:39;11.50;99.90
10175;DHT22;18221;38.704;0.152;2024-03-08T06:45:08;11.50;99.90
10175;DHT22;18221;38.704;0.152;2024-03-08T06:47:36;11.50;99.90
10175;DHT22;18221;38.704;0.152;2024-03-08T06:50:04;11.50;99.90
10175;DHT22;18221;38.704;0.152;2024-03-08T06:52:35;11.50;99.90
10175;DHT22;18221;38.704;0.152;2024-03-08T06:55:05;11.50;99.90
10175;DHT22;18221;38.704;0.152;2024-03-08T06:57:36;11.60;99.90
10175;DHT22;18221;38.704;0.152;2024-03-08T07:00:06;11.60;99.90
10175;DHT22;18221;38.704;0.152;2024-03-08T07:02:36;11.60;99.90
10175;DHT22;18221;38.704;0.152;2024-03-08T07:05:06;11.60;99.90
10175;DHT22;18221;38.704;0.152;2024-03-08T07:07:38;11.70;99.90
10175;DHT22;18221;38.704;0.152;2024-03-08T07:10:07;11.80;99.90
10175;DHT22;18221;38.704;0.152;2024-03-08T07:12:37;11.80;99.90
10175;DHT22;18221;38.704;0.152;2024-03-08T07:15:06;11.90;99.90
10175;DHT22;18221;38.704;0.152;2024-03-08T07:17:34;11.90;99.90
10175;DHT22;18221;38.704;0.152;2024-03-08T07:20:03;11.90;99.90
10175;DHT22;18221;38.704;0.152;2024-03-08T07:22:38;11.90;99.90
10175;DHT22;18221;38.704;0.152;2024-03-08T07:25:07;12.00;99.90
10175;DHT22;18221;38.704;0.152;2024-03-08T07:27:47;12.00;99.90
10175;DHT22;18221;38.704;0.152;2024-03-08T07:30:15;12.00;99.90
10175;DHT22;18221;38.704;0.152;2024-03-08T07:33:03;12.00;99.90
10175;DHT22;18221;38.704;0.152;2024-03-08T07:35:33;12.00;99.90
10175;DHT22;18221;38.704;0.152;2024-03-08T07:38:04;12.00;99.90
10175;DHT22;18221;38.704;0.152;2024-03-08T07:40:36;12.10;99.90
10175;DHT22;18221;38.704;0.152;2024-03-08T07:43:06;12.20;99.90
10175;DHT22;18221;38.704;0.152;2024-03-08T07:45:34;12.20;99.90
10175;DHT22;18221;38.704;0.152;2024-03-08T07:48:02;12.20;99.90
10175;DHT22;18221;38.704;0.152;2024-03-08T07:50:36;12.20;99.90
10175;DHT22;18221;38.704;0.152;2024-03-08T07:53:06;12.20;99.90
10175;DHT22;18221;38.704;0.152;2024-03-08T07:55:35;12.20;99.90
10175;DHT22;18221;38.704;0.152;2024-03-08T07:58:04;12.20;99.90
10175;DHT22;18221;38.704;0.152;2024-03-08T08:00:32;12.20;99.90
10175;DHT22;18221;38.704;0.152;2024-03-08T08:02:59;12.30;99.90
10175;DHT22;18221;38.704;0.152;2024-03-08T08:05:27;12.30;99.90
10175;DHT22;18221;38.704;0.152;2024-03-08T08:07:58;12.30;99.90
10175;DHT22;18221;38.704;0.152;2024-03-08T08:10:27;12.40;99.90
10175;DHT22;18221;38.704;0.152;2024-03-08T08:12:55;12.40;99.90
10175;DHT22;18221;38.704;0.152;2024-03-08T08:15:23;12.40;99.90
10175;DHT22;18221;38.704;0.152;2024-03-08T08:17:51;12.40;99.90
10175;DHT22;18221;38.704;0.152;2024-03-08T08:20:19;12.40;99.90
10175;DHT22;18221;38.704;0.152;2024-03-08T08:22:47;12.50;99.90
10175;DHT22;18221;38.704;0.152;2024-03-08T08:25:15;12.40;99.90
10175;DHT22;18221;38.704;0.152;2024-03-08T08:27:47;12.50;99.90
10175;DHT22;18221;38.704;0.152;2024-03-08T08:30:15;12.50;99.90
10175;DHT22;18221;38.704;0.152;2024-03-08T08:32:43;12.40;99.90
10175;DHT22;18221;38.704;0.152;2024-03-08T08:35:13;12.50;99.90
10175;DHT22;18221;38.704;0.152;2024-03-08T08:37:41;12.60;99.90
10175;DHT22;18221;38.704;0.152;2024-03-08T08:40:10;12.60;99.90
10175;DHT22;18221;38.704;0.152;2024-03-08T08:42:40;12.50;99.90
10175;DHT22;18221;38.704;0.152;2024-03-08T08:45:10;12.60;99.90
10175;DHT22;18221;38.704;0.152;2024-03-08T08:47:38;12.60;99.90
10175;DHT22;18221;38.704;0.152;2024-03-08T08:50:09;12.70;99.90
10175;DHT22;18221;38.704;0.152;2024-03-08T08:52:37;12.70;99.90
10175;DHT22;18221;38.704;0.152;2024-03-08T08:55:06;12.80;99.90
10175;DHT22;18221;38.704;0.152;2024-03-08T08:57:34;12.80;99.90
10175;DHT22;18221;38.704;0.152;2024-03-08T09:00:02;12.80;99.90
10175;DHT22;18221;38.704;0.152;2024-03-08T09:02:34;12.80;99.90
10175;DHT22;18221;38.704;0.152;2024-03-08T09:05:03;12.80;99.90
10175;DHT22;18221;38.704;0.152;2024-03-08T09:07:31;12.80;99.90
10175;DHT22;18221;38.704;0.152;2024-03-08T09:09:59;12.90;99.90
10175;DHT22;18221;38.704;0.152;2024-03-08T09:12:28;12.90;99.90
10175;DHT22;18221;38.704;0.152;2024-03-08T09:14:58;11.00;99.90
10175;DHT22;18221;38.704;0.152;2024-03-08T09:17:26;12.90;99.90
10175;DHT22;18221;38.704;0.152;2024-03-08T09:19:55;13.00;99.90
10175;DHT22;18221;38.704;0.152;2024-03-08T09:22:23;12.90;99.90
10175;DHT22;18221;38.704;0.152;2024-03-08T09:24:51;13.00;99.90
10175;DHT22;18221;38.704;0.152;2024-03-08T09:27:19;13.10;99.90
10175;DHT22;18221;38.704;0.152;2024-03-08T09:29:47;13.10;99.90
10175;DHT22;18221;38.704;0.152;2024-03-08T09:32:15;13.20;99.90
10175;DHT22;18221;38.704;0.152;2024-03-08T09:34:43;13.20;99.90
10175;DHT22;18221;38.704;0.152;2024-03-08T09:37:12;13.30;99.90
10175;DHT22;18221;38.704;0.152;2024-03-08T09:39:40;13.30;99.90
10175;DHT22;18221;38.704;0.152;2024-03-08T09:42:08;13.40;99.90
10175;DHT22;18221;38.704;0.152;2024-03-08T09:44:37;13.40;99.90
10175;DHT22;18221;38.704;0.152;2024-03-08T09:47:05;13.50;99.90
10175;DHT22;18221;38.704;0.152;2024-03-08T09:49:34;13.50;99.90
10175;DHT22;18221;38.704;0.152;2024-03-08T09:52:03;13.60;99.90
10175;DHT22;18221;38.704;0.152;2024-03-08T09:54:33;13.70;99.90
10175;DHT22;18221;38.704;0.152;2024-03-08T09:57:03;14.00;99.90
10175;DHT22;18221;38.704;0.152;2024-03-08T09:59:34;13.60;99.90
10175;DHT22;18221;38.704;0.152;2024-03-08T10:02:15;13.70;99.90
10175;DHT22;18221;38.704;0.152;2024-03-08T10:04:44;13.00;99.90
10175;DHT22;18221;38.704;0.152;2024-03-08T10:07:13;13.80;99.90
10175;DHT22;18221;38.704;0.152;2024-03-08T10:09:43;13.80;99.90
10175;DHT22;18221;38.704;0.152;2024-03-08T10:12:16;13.80;99.90
10175;DHT22;18221;38.704;0.152;2024-03-08T10:14:45;13.80;99.90
10175;DHT22;18221;38.704;0.152;2024-03-08T10:17:13;13.90;99.90
10175;DHT22;18221;38.704;0.152;2024-03-08T10:19:49;13.90;99.90
10175;DHT22;18221;38.704;0.152;2024-03-08T10:22:19;14.00;99.90
10175;DHT22;18221;38.704;0.152;2024-03-08T10:24:48;14.00;99.90
10175;DHT22;18221;38.704;0.152;2024-03-08T10:27:17;14.00;99.90
10175;DHT22;18221;38.704;0.152;2024-03-08T10:29:47;14.00;99.90
10175;DHT22;18221;38.704;0.152;2024-03-08T10:32:17;14.00;99.90
10175;DHT22;18221;38.704;0.152;2024-03-08T10:34:46;14.10;99.90
10175;DHT22;18221;38.704;0.152;2024-03-08T10:37:16;14.10;99.90
10175;DHT22;18221;38.704;0.152;2024-03-08T10:40:02;14.20;99.90
10175;DHT22;18221;38.704;0.152;2024-03-08T10:42:39;14.20;99.90
10175;DHT22;18221;38.704;0.152;2024-03-08T10:45:14;14.10;99.90
10175;DHT22;18221;38.704;0.152;2024-03-08T10:47:49;14.10;99.90
10175;DHT22;18221;38.704;0.152;2024-03-08T10:50:34;14.10;99.90
10175;DHT22;18221;38.704;0.152;2024-03-08T10:53:11;14.20;99.90
10175;DHT22;18221;38.704;0.152;2024-03-08T10:55:43;14.20;99.90
10175;DHT22;18221;38.704;0.152;2024-03-08T10:58:14;14.30;99.90
10175;DHT22;18221;38.704;0.152;2024-03-08T11:00:45;14.40;99.90
10175;DHT22;18221;38.704;0.152;2024-03-08T11:03:45;14.40;99.90
10175;DHT22;18221;38.704;0.152;2024-03-08T11:06:22;14.50;99.90
10175;DHT22;18221;38.704;0.152;2024-03-08T11:08:57;14.60;99.90
10175;DHT22;18221;38.704;0.152;2024-03-08T11:11:29;14.60;99.90
10175;DHT22;18221;38.704;0.152;2024-03-08T11:14:00;14.60;99.90
10175;DHT22;18221;38.704;0.152;2024-03-08T11:16:40;14.60;99.90
10175;DHT22;18221;38.704;0.152;2024-03-08T11:19:24;14.60;99.90
10175;DHT22;18221;38.704;0.152;2024-03-08T11:21:59;14.60;99.90
10175;DHT22;18221;38.704;0.152;2024-03-08T11:24:27;14.70;99.90
10175;DHT22;18221;38.704;0.152;2024-03-08T11:27:05;14.70;99.90
10175;DHT22;18221;38.704;0.152;2024-03-08T11:29:38;14.70;99.90
10175;DHT22;18221;38.704;0.152;2024-03-08T11:32:10;14.70;99.90
10175;DHT22;18221;38.704;0.152;2024-03-08T11:34:39;14.70;99.90
10175;DHT22;18221;38.704;0.152;2024-03-08T11:37:13;14.80;99.90
10175;DHT22;18221;38.704;0.152;2024-03-08T11:39:46;14.90;99.90
10175;DHT22;18221;38.704;0.152;2024-03-08T11:42:17;15.00;99.90
10175;DHT22;18221;38.704;0.152;2024-03-08T11:44:46;15.10;99.90
10175;DHT22;18221;38.704;0.152;2024-03-08T11:47:14;15.20;99.90
10175;DHT22;18221;38.704;0.152;2024-03-08T11:49:42;15.20;99.90
10175;DHT22;18221;38.704;0.152;2024-03-08T11:52:13;15.10;99.90
10175;DHT22;18221;38.704;0.152;2024-03-08T11:54:43;15.20;99.90
10175;DHT22;18221;38.704;0.152;2024-03-08T11:57:22;15.20;99.90
10175;DHT22;18221;38.704;0.152;2024-03-08T11:59:51;15.30;99.90
10175;DHT22;18221;38.704;0.152;2024-03-08T12:02:18;15.40;99.90
10175;DHT22;18221;38.704;0.152;2024-03-08T12:04:46;15.50;99.90
10175;DHT22;18221;38.704;0.152;2024-03-08T12:07:15;15.30;99.90
10175;DHT22;18221;38.704;0.152;2024-03-08T12:10:14;15.30;99.90
10175;DHT22;18221;38.704;0.152;2024-03-08T12:12:45;15.30;99.90
10175;DHT22;18221;38.704;0.152;2024-03-08T12:15:16;15.30;99.90
10175;DHT22;18221;38.704;0.152;2024-03-08T12:17:45;15.20;99.90
10175;DHT22;18221;38.704;0.152;2024-03-08T12:20:18;15.10;99.90
10175;DHT22;18221;38.704;0.152;2024-03-08T12:22:48;15.10;99.90
10175;DHT22;18221;38.704;0.152;2024-03-08T12:25:20;15.10;99.90
10175;DHT22;18221;38.704;0.152;2024-03-08T12:27:49;15.20;99.90
10175;DHT22;18221;38.704;0.152;2024-03-08T12:30:20;15.40;99.90
10175;DHT22;18221;38.704;0.152;2024-03-08T12:32:54;15.60;99.90
10175;DHT22;18221;38.704;0.152;2024-03-08T12:35:25;15.70;99.90
10175;DHT22;18221;38.704;0.152;2024-03-08T12:37:55;15.80;99.90
10175;DHT22;18221;38.704;0.152;2024-03-08T12:40:27;15.90;99.90
10175;DHT22;18221;38.704;0.152;2024-03-08T12:42:59;15.80;99.90
10175;DHT22;18221;38.704;0.152;2024-03-08T12:45:27;15.70;99.90
10175;DHT22;18221;38.704;0.152;2024-03-08T12:47:55;15.60;99.90
10175;DHT22;18221;38.704;0.152;2024-03-08T12:50:25;15.10;99.90
10175;DHT22;18221;38.704;0.152;2024-03-08T12:52:53;16.00;99.90
10175;DHT22;18221;38.704;0.152;2024-03-08T12:55:27;15.80;99.90
10175;DHT22;18221;38.704;0.152;2024-03-08T12:58:00;15.90;99.90
10175;DHT22;18221;38.704;0.152;2024-03-08T13:00:28;16.10;99.90
10175;DHT22;18221;38.704;0.152;2024-03-08T13:02:56;16.30;99.90
10175;DHT22;18221;38.704;0.152;2024-03-08T13:05:25;16.50;99.90
10175;DHT22;18221;38.704;0.152;2024-03-08T13:07:53;16.80;99.90
10175;DHT22;18221;38.704;0.152;2024-03-08T13:10:21;16.80;99.90
10175;DHT22;18221;38.704;0.152;2024-03-08T13:12:49;16.90;99.90
10175;DHT22;18221;38.704;0.152;2024-03-08T13:15:20;17.10;99.90
10175;DHT22;18221;38.704;0.152;2024-03-08T13:17:49;17.20;99.90
10175;DHT22;18221;38.704;0.152;2024-03-08T13:20:17;17.40;99.90
10175;DHT22;18221;38.704;0.152;2024-03-08T13:22:45;17.10;99.90
10175;DHT22;18221;38.704;0.152;2024-03-08T13:25:14;16.90;99.90
10175;DHT22;18221;38.704;0.152;2024-03-08T13:27:42;16.50;99.90
10175;DHT22;18221;38.704;0.152;2024-03-08T13:30:12;16.50;99.90
10175;DHT22;18221;38.704;0.152;2024-03-08T13:32:45;16.80;99.90
10175;DHT22;18221;38.704;0.152;2024-03-08T13:35:14;17.30;99.90
10175;DHT22;18221;38.704;0.152;2024-03-08T13:37:50;17.30;99.90
10175;DHT22;18221;38.704;0.152;2024-03-08T13:40:19;17.00;99.90
10175;DHT22;18221;38.704;0.152;2024-03-08T13:42:47;16.70;99.90
10175;DHT22;18221;38.704;0.152;2024-03-08T13:45:16;16.60;99.90
10175;DHT22;18221;38.704;0.152;2024-03-08T13:47:49;16.70;99.90
10175;DHT22;18221;38.704;0.152;2024-03-08T13:50:18;16.80;99.90
10175;DHT22;18221;38.704;0.152;2024-03-08T13:52:47;16.60;99.90
10175;DHT22;18221;38.704;0.152;2024-03-08T13:55:17;16.50;99.90
10175;DHT22;18221;38.704;0.152;2024-03-08T13:57:45;16.40;99.90
10175;DHT22;18221;38.704;0.152;2024-03-08T14:00:15;16.40;99.90
10175;DHT22;18221;38.704;0.152;2024-03-08T14:02:43;16.60;99.90
10175;DHT22;18221;38.704;0.152;2024-03-08T14:05:13;16.90;99.90
10175;DHT22;18221;38.704;0.152;2024-03-08T14:07:42;17.00;99.90
10175;DHT22;18221;38.704;0.152;2024-03-08T14:10:12;17.20;99.90
10175;DHT22;18221;38.704;0.152;2024-03-08T14:12:40;17.10;99.90
10175;DHT22;18221;38.704;0.152;2024-03-08T14:15:09;17.00;99.90
10175;DHT22;18221;38.704;0.152;2024-03-08T14:17:38;17.00;99.90
10175;DHT22;18221;38.704;0.152;2024-03-08T14:20:07;16.90;99.90
10175;DHT22;18221;38.704;0.152;2024-03-08T14:22:40;16.80;99.90
10175;DHT22;18221;38.704;0.152;2024-03-08T14:25:09;16.80;99.90
10175;DHT22;18221;38.704;0.152;2024-03-08T14:27:43;17.00;99.90
10175;DHT22;18221;38.704;0.152;2024-03-08T14:30:11;16.90;99.90
10175;DHT22;18221;38.704;0.152;2024-03-08T14:32:57;16.90;99.90
10175;DHT22;18221;38.704;0.152;2024-03-08T14:35:25;16.80;99.90
10175;DHT22;18221;38.704;0.152;2024-03-08T14:37:57;16.80;99.90
10175;DHT22;18221;38.704;0.152;2024-03-08T14:40:26;16.90;99.90
10175;DHT22;18221;38.704;0.152;2024-03-08T14:42:56;17.00;99.90
10175;DHT22;18221;38.704;0.152;2024-03-08T14:45:24;16.70;99.90
10175;DHT22;18221;38.704;0.152;2024-03-08T14:47:52;16.60;99.90
10175;DHT22;18221;38.704;0.152;2024-03-08T14:50:21;16.60;99.90
10175;DHT22;18221;38.704;0.152;2024-03-08T14:52:50;16.60;99.90
10175;DHT22;18221;38.704;0.152;2024-03-08T14:55:21;16.70;99.90
10175;DHT22;18221;38.704;0.152;2024-03-08T14:57:49;16.60;99.90
10175;DHT22;18221;38.704;0.152;2024-03-08T15:00:18;16.60;99.90
10175;DHT22;18221;38.704;0.152;2024-03-08T15:02:59;16.60;99.90
10175;DHT22;18221;38.704;0.152;2024-03-08T15:05:28;16.60;99.90
10175;DHT22;18221;38.704;0.152;2024-03-08T15:07:58;16.70;99.90
10175;DHT22;18221;38.704;0.152;2024-03-08T15:10:29;16.60;99.90
10175;DHT22;18221;38.704;0.152;2024-03-08T15:12:59;16.60;99.90
10175;DHT22;18221;38.704;0.152;2024-03-08T15:15:28;16.70;99.90
10175;DHT22;18221;38.704;0.152;2024-03-08T15:17:58;16.80;99.90
10175;DHT22;18221;38.704;0.152;2024-03-08T15:20:26;16.70;99.90
10175;DHT22;18221;38.704;0.152;2024-03-08T15:22:55;16.80;99.90
10175;DHT22;18221;38.704;0.152;2024-03-08T15:25:24;16.80;99.90
10175;DHT22;18221;38.704;0.152;2024-03-08T15:27:54;16.70;99.90
10175;DHT22;18221;38.704;0.152;2024-03-08T15:30:24;16.60;99.90
10175;DHT22;18221;38.704;0.152;2024-03-08T15:32:57;16.60;99.90
10175;DHT22;18221;38.704;0.152;2024-03-08T15:35:27;16.80;99.90
10175;DHT22;18221;38.704;0.152;2024-03-08T15:37:55;16.80;99.90
10175;DHT22;18221;38.704;0.152;2024-03-08T15:40:24;16.70;99.90
10175;DHT22;18221;38.704;0.152;2024-03-08T15:42:57;16.70;99.90
10175;DHT22;18221;38.704;0.152;2024-03-08T15:45:25;16.70;99.90
10175;DHT22;18221;38.704;0.152;2024-03-08T15:47:53;16.70;99.90
10175;DHT22;18221;38.704;0.152;2024-03-08T15:50:21;16.70;99.90
10175;DHT22;18221;38.704;0.152;2024-03-08T15:52:50;16.70;99.90
10175;DHT22;18221;38.704;0.152;2024-03-08T15:55:19;16.70;99.90